createdAt,value
2018-07-09T00:00:27.329Z,79.2
2018-07-09T00:05:27.348Z,79
2018-07-09T00:10:27.160Z,78.7
2018-07-09T00:15:27.307Z,79.4
2018-07-09T00:20:27.159Z,79
2018-07-09T00:25:27.170Z,79.3
2018-07-09T00:30:39.821Z,78.8
2018-07-09T00:35:39.410Z,79.6
2018-07-09T00:40:39.532Z,79.4
2018-07-09T00:45:39.402Z,80.1
2018-07-09T00:50:39.634Z,80.1
2018-07-09T00:55:39.564Z,81.3
2018-07-09T01:00:39.433Z,82.2
2018-07-09T01:05:39.785Z,80.6
2018-07-09T01:10:39.515Z,81.3
2018-07-09T01:15:52.461Z,81.6
2018-07-09T01:20:52.093Z,81
2018-07-09T01:25:52.265Z,81
2018-07-09T01:30:52.201Z,81.9
2018-07-09T01:35:52.227Z,81.6
2018-07-09T01:40:55.960Z,81.5
2018-07-09T01:45:55.661Z,81.6
2018-07-09T01:50:55.931Z,82.6
2018-07-09T01:55:55.739Z,82.2
2018-07-09T02:00:55.896Z,82.2
2018-07-09T02:05:55.921Z,82
2018-07-09T02:10:55.877Z,82.6
2018-07-09T02:15:56.533Z,83.1
2018-07-09T02:20:56.467Z,82.6
2018-07-09T02:26:09.264Z,83.1
2018-07-09T02:31:09.458Z,83.2
2018-07-09T02:36:09.091Z,83.2
2018-07-09T02:41:09.007Z,83.7
2018-07-09T02:46:09.205Z,83.4
2018-07-09T02:51:09.121Z,82.7
2018-07-09T02:56:08.987Z,83.8
2018-07-09T03:01:11.340Z,84.6
2018-07-09T03:06:10.668Z,84
2018-07-09T03:11:23.509Z,84.9
2018-07-09T03:16:23.452Z,84.6
2018-07-09T03:21:23.502Z,84.5
2018-07-09T03:26:23.248Z,84.2
2018-07-09T03:31:23.192Z,85.1
2018-07-09T03:36:23.363Z,85.7
2018-07-09T03:41:23.224Z,84.8
2018-07-09T03:46:24.055Z,85
2018-07-09T03:51:23.991Z,84.5
2018-07-09T03:56:36.144Z,84.6
2018-07-09T04:01:36.091Z,84.2
2018-07-09T04:06:36.071Z,84.1
2018-07-09T04:11:38.726Z,84.2
2018-07-09T04:16:36.073Z,84.1
2018-07-09T04:21:36.078Z,82.5
2018-07-09T04:26:35.871Z,82.4
2018-07-09T04:31:36.980Z,83.3
2018-07-09T04:36:36.893Z,82.7
2018-07-09T04:41:49.335Z,83.1
2018-07-09T04:46:49.220Z,83.2
2018-07-09T04:51:49.331Z,81.9
2018-07-09T04:56:49.278Z,81.8
2018-07-09T05:01:49.248Z,80.3
2018-07-09T05:06:49.278Z,80.4
2018-07-09T05:11:49.208Z,78.2
2018-07-09T05:16:49.995Z,73.7
2018-07-09T05:21:49.705Z,72.6
2018-07-09T05:27:02.148Z,71.7
2018-07-09T05:32:02.086Z,71.1
2018-07-09T05:37:02.085Z,68.1
2018-07-09T05:42:02.131Z,66.5
2018-07-09T05:47:02.234Z,66.5
2018-07-09T05:52:02.509Z,65
2018-07-09T05:57:02.373Z,62.7
2018-07-09T06:02:02.269Z,61.4
2018-07-09T06:07:02.182Z,62.9
2018-07-09T06:12:02.421Z,60.4
2018-07-09T06:17:02.380Z,59.5
2018-07-09T06:22:02.250Z,60.1
2018-07-09T06:27:03.075Z,58.5
2018-07-09T06:32:02.954Z,59.2
2018-07-09T06:37:15.262Z,56.4
2018-07-09T06:42:15.234Z,54.9
2018-07-09T06:47:15.023Z,55.7
2018-07-09T06:52:15.225Z,57.2
2018-07-09T06:57:25.256Z,56.5
2018-07-09T07:02:25.453Z,55
2018-07-09T07:07:25.255Z,56.2
2018-07-09T07:12:24.989Z,54
2018-07-09T07:17:25.025Z,56
2018-07-09T07:22:25.813Z,52.6
2018-07-09T07:27:26.651Z,52.4
2018-07-09T07:32:27.155Z,53.2
2018-07-09T07:37:26.983Z,53.6
2018-07-09T07:42:39.667Z,52.3
2018-07-09T07:47:40.642Z,49.9
2018-07-09T07:52:39.431Z,50.4
2018-07-09T07:57:39.573Z,50.4
2018-07-09T08:02:39.629Z,48.9
2018-07-09T08:07:39.451Z,46.4
2018-07-09T08:13:27.982Z,44.7
2018-07-09T08:17:40.226Z,44.4
2018-07-09T08:22:40.097Z,44.1
2018-07-09T08:27:52.943Z,48
2018-07-09T08:32:52.673Z,45
2018-07-09T08:37:53.023Z,44.8
2018-07-09T08:42:52.658Z,44.9
2018-07-09T08:47:52.819Z,45
2018-07-09T08:52:52.665Z,44.2
2018-07-09T08:57:52.770Z,46.4
2018-07-09T09:02:52.643Z,45
2018-07-09T09:07:52.656Z,45.3
2018-07-09T09:12:52.893Z,44
2018-07-09T09:17:52.812Z,45.4
2018-07-09T09:22:52.864Z,43.7
2018-07-09T09:27:53.275Z,41.7
2018-07-09T09:32:53.132Z,41.7
2018-07-09T09:38:05.955Z,39.5
2018-07-09T09:43:05.850Z,38.9
2018-07-09T09:48:05.812Z,40.3
2018-07-09T09:53:05.798Z,40.1
2018-07-09T09:58:05.898Z,38.8
2018-07-09T10:03:05.692Z,39.6
2018-07-09T10:08:05.706Z,42
2018-07-09T10:13:09.913Z,39.9
2018-07-09T10:18:09.820Z,37.5
2018-07-09T10:23:22.977Z,37.3
2018-07-09T10:28:22.479Z,39.7
2018-07-09T10:33:22.401Z,41.8
2018-07-09T10:38:22.467Z,42.5
2018-07-09T10:43:22.488Z,39.7
2018-07-09T10:48:22.521Z,40.3
2018-07-09T10:53:22.437Z,39.4
2018-07-09T10:58:22.809Z,39.9
2018-07-09T11:03:22.596Z,38.8
2018-07-09T11:08:38.047Z,38.1
2018-07-09T11:13:37.981Z,37.4
2018-07-09T11:18:37.989Z,39
2018-07-09T11:23:37.759Z,38.9
2018-07-09T11:28:37.951Z,39.9
2018-07-09T11:33:37.851Z,37.9
2018-07-09T11:38:37.909Z,38.2
2018-07-09T11:43:38.075Z,38.4
2018-07-09T11:48:37.799Z,38.6
2018-07-09T11:53:50.640Z,37.2
2018-07-09T11:58:50.406Z,38.5
2018-07-09T12:03:50.345Z,39.8
2018-07-09T12:08:50.335Z,39.1
2018-07-09T12:13:50.559Z,39.2
2018-07-09T12:18:50.446Z,39.9
2018-07-09T12:23:50.353Z,41.1
2018-07-09T12:28:52.271Z,42.4
2018-07-09T12:33:51.828Z,43.6
2018-07-09T12:39:04.331Z,43.5
2018-07-09T12:44:04.052Z,44.8
2018-07-09T12:49:04.197Z,43
2018-07-09T12:54:04.253Z,41.7
2018-07-09T12:59:04.114Z,40.7
2018-07-09T13:04:04.057Z,39.5
2018-07-09T13:09:04.246Z,39.5
2018-07-09T13:14:04.190Z,38.5
2018-07-09T13:19:04.203Z,37.4
2018-07-09T13:24:04.221Z,37.3
2018-07-09T13:29:04.091Z,36.2
2018-07-09T13:34:04.039Z,36.1
2018-07-09T13:39:04.747Z,36.1
2018-07-09T13:44:04.602Z,35.8
2018-07-09T13:49:17.506Z,37.5
2018-07-09T13:54:17.463Z,37.3
2018-07-09T13:59:17.361Z,34.9
2018-07-09T14:04:17.582Z,35
2018-07-09T14:09:17.451Z,38
2018-07-09T14:14:17.384Z,37.2
2018-07-09T14:19:17.290Z,34.9
2018-07-09T14:24:19.064Z,33.7
2018-07-09T14:29:18.772Z,37
2018-07-09T14:34:31.790Z,36.2
2018-07-09T14:39:31.677Z,36.8
2018-07-09T14:44:31.522Z,37.6
2018-07-09T14:49:31.650Z,36.8
2018-07-09T14:54:31.720Z,37.6
2018-07-09T14:59:31.524Z,37.2
2018-07-09T15:04:31.631Z,36.4
2018-07-09T15:09:31.868Z,36
2018-07-09T15:14:31.745Z,35.3
2018-07-09T15:19:31.757Z,35.7
2018-07-09T15:24:31.809Z,37.2
2018-07-09T15:29:31.856Z,37.1
2018-07-09T15:34:32.526Z,35.2
2018-07-09T15:39:32.236Z,35.7
2018-07-09T15:44:45.675Z,35.9
2018-07-09T15:49:45.367Z,35.7
2018-07-09T15:54:45.612Z,36.9
2018-07-09T15:59:45.523Z,37.4
2018-07-09T16:04:45.592Z,36.5
2018-07-09T16:09:45.409Z,38.4
2018-07-09T16:14:45.544Z,37.9
2018-07-09T16:19:48.195Z,39.8
2018-07-09T16:24:48.108Z,40.3
2018-07-09T16:29:58.569Z,42.3
2018-07-09T16:34:58.342Z,42.7
2018-07-09T16:39:58.661Z,43.3
2018-07-09T16:44:58.301Z,43
2018-07-09T16:49:58.311Z,42.5
2018-07-09T16:54:58.507Z,42.8
2018-07-09T16:59:58.441Z,42.8
2018-07-09T17:04:59.095Z,43.5
2018-07-09T17:09:59.045Z,44.7
2018-07-09T17:15:11.772Z,43.7
2018-07-09T17:20:11.474Z,43.4
2018-07-09T17:25:11.474Z,43.2
2018-07-09T17:30:11.503Z,43.7
2018-07-09T17:35:11.755Z,44.4
2018-07-09T17:40:11.477Z,44.9
2018-07-09T17:45:11.528Z,46
2018-07-09T17:50:11.908Z,45.5
2018-07-09T17:55:11.676Z,47.9
2018-07-09T18:00:23.768Z,47.1
2018-07-09T18:05:23.484Z,48.6
2018-07-09T18:10:23.758Z,49.7
2018-07-09T18:15:23.500Z,50.4
2018-07-09T18:20:23.757Z,52.2
2018-07-09T18:25:23.788Z,53.9
2018-07-09T18:30:23.656Z,54.7
2018-07-09T18:35:25.692Z,55.5
2018-07-09T18:40:25.372Z,55.2
2018-07-09T18:45:36.869Z,56.1
2018-07-09T18:50:36.592Z,55.3
2018-07-09T18:55:36.581Z,55.8
2018-07-09T19:00:36.773Z,57.4
2018-07-09T19:05:36.619Z,55.9
2018-07-09T19:10:36.635Z,60.2
2018-07-09T19:15:37.924Z,60.9
2018-07-09T19:20:38.301Z,62.6
2018-07-09T19:25:49.480Z,62.2
2018-07-09T19:30:52.213Z,61
2018-07-09T19:35:50.977Z,61.5
2018-07-09T19:40:50.902Z,61.9
2018-07-09T19:45:51.217Z,62.7
2018-07-09T19:50:50.880Z,63
2018-07-09T19:55:50.916Z,63.2
2018-07-09T20:00:50.933Z,64.7
2018-07-09T20:05:51.031Z,64.4
2018-07-09T20:10:50.895Z,66.5
2018-07-09T20:15:50.886Z,66.6
2018-07-09T20:20:51.263Z,66.7
2018-07-09T20:25:51.288Z,67.3
2018-07-09T20:30:52.583Z,67.9
2018-07-09T20:35:53.162Z,68
2018-07-09T20:41:07.220Z,68.1
2018-07-09T20:46:07.114Z,68.7
2018-07-09T20:51:06.591Z,69.7
2018-07-09T20:56:06.355Z,68.8
2018-07-09T21:01:07.325Z,68.8
2018-07-09T21:06:06.176Z,68.6
2018-07-09T21:11:06.169Z,69.9
2018-07-09T21:16:11.901Z,69.8
2018-07-09T21:21:11.171Z,69.8
2018-07-09T21:26:23.673Z,69.1
2018-07-09T21:31:23.537Z,68.5
2018-07-09T21:36:23.554Z,69.2
2018-07-09T21:41:23.639Z,70
2018-07-09T21:46:23.672Z,69
2018-07-09T21:51:25.255Z,69.9
2018-07-09T21:56:25.445Z,70.6
2018-07-09T22:01:25.169Z,70.4
2018-07-09T22:06:25.210Z,71.2
2018-07-09T22:11:25.021Z,71.2
2018-07-09T22:16:25.021Z,70.7
2018-07-09T22:21:25.221Z,70.3
2018-07-09T22:26:29.543Z,70.6
2018-07-09T22:31:29.254Z,71.1
2018-07-09T22:36:40.040Z,71.5
2018-07-09T22:41:39.800Z,71.3
2018-07-09T22:46:39.897Z,71
2018-07-09T22:51:39.757Z,70.4
2018-07-09T22:56:39.962Z,70.1
2018-07-09T23:01:39.777Z,69.8
2018-07-09T23:06:39.927Z,70.4
2018-07-09T23:11:42.658Z,70.5
2018-07-09T23:16:42.770Z,70.9
2018-07-09T23:21:53.045Z,71.5
2018-07-09T23:26:52.794Z,70.6
2018-07-09T23:31:52.893Z,70.8
2018-07-09T23:36:52.964Z,71.3
2018-07-09T23:41:52.978Z,70.8
2018-07-09T23:46:52.898Z,73.7
2018-07-09T23:51:52.924Z,74.7
2018-07-09T23:56:55.698Z,73.4
